Time;durP1;ratioP1;P1;durP2;ratioP2;P2;SDS_P1;SDS_P2;PMS_P1;PMS_P2;Temp;Humidity;BMP_temperature;BMP_pressure;BME280_temperature;BME280_humidity;BME280_pressure;Samples;Min_cycle;Max_cycle;Signal;HPM_P1;HPM_P2
2021/11/07 00:00:33;;;;;;;35.92;16.70;;;;;;;1.89;100.00;97546.84;4951625;28;21012;-62
2021/11/07 00:03:26;;;;;;;38.55;18.02;;;;;;;1.67;100.00;97552.81;4977567;28;20093;-61
2021/11/07 00:06:03;;;;;;;44.22;18.13;;;;;;;1.70;100.00;97563.84;4978552;28;20042;-60
2021/11/07 00:11:00;;;;;;;39.97;17.35;;;;;;;2.20;100.00;97536.47;4997216;28;20348;-61
2021/11/07 00:13:26;;;;;;;36.30;17.13;;;;;;;2.29;100.00;97526.59;4975030;28;20051;-60
2021/11/07 00:15:55;;;;;;;34.42;16.95;;;;;;;2.41;100.00;97511.84;4989658;28;20758;-60
2021/11/07 00:18:25;;;;;;;38.10;17.45;;;;;;;2.58;100.00;97501.31;4985782;28;20499;-60
2021/11/07 00:21:08;;;;;;;;;;;;;;;2.75;100.00;97508.06;4990046;28;20030;-62
2021/11/07 00:29:08;;;;;;;33.35;15.77;;;;;;;2.63;100.00;97525.56;4980067;28;20039;-60
2021/11/07 00:44:13;;;;;;;29.52;15.90;;;;;;;3.01;100.00;97541.72;4974935;28;20572;-60
2021/11/07 00:46:58;;;;;;;29.17;15.45;;;;;;;3.00;100.00;97553.63;4984334;28;20041;-60
2021/11/07 00:49:32;;;;;;;32.28;14.05;;;;;;;3.12;100.00;97547.78;4993787;28;20103;-58
2021/11/07 00:56:55;;;;;;;28.05;14.73;;;;;;;2.98;100.00;97544.22;4983409;28;20755;-59
2021/11/07 01:02:08;;;;;;;35.30;16.48;;;;;;;2.28;100.00;97551.22;5003779;28;20049;-56
2021/11/07 01:04:33;;;;;;;35.70;17.30;;;;;;;1.95;100.00;97551.13;4992495;28;20061;-57
2021/11/07 01:06:59;;;;;;;36.55;17.08;;;;;;;1.91;100.00;97559.00;5012475;28;20037;-57
2021/11/07 01:09:24;;;;;;;40.42;19.90;;;;;;;1.80;100.00;97544.03;4996131;28;20041;-61
2021/11/07 01:11:50;;;;;;;43.53;19.20;;;;;;;1.66;100.00;97535.81;4998266;28;20057;-58
2021/11/07 01:14:15;;;;;;;43.00;19.67;;;;;;;1.69;100.00;97539.81;4987441;28;20042;-59
2021/11/07 01:16:41;;;;;;;47.42;19.75;;;;;;;1.77;100.00;97544.59;4990256;28;20042;-60
2021/11/07 01:19:08;;;;;;;42.85;19.38;;;;;;;1.84;100.00;97549.66;4994731;28;20050;-61
2021/11/07 01:21:37;;;;;;;41.70;17.83;;;;;;;1.89;100.00;97534.19;4998070;28;20462;-59
2021/11/07 01:24:19;;;;;;;43.05;19.73;;;;;;;1.80;100.00;97525.13;4993741;28;20050;-60
2021/11/07 01:26:49;;;;;;;44.42;19.13;;;;;;;1.71;100.00;97508.75;5001271;28;20049;-59
2021/11/07 01:29:17;;;;;;;44.88;20.67;;;;;;;1.66;100.00;97506.09;4990407;28;20057;-59
2021/11/07 01:31:43;;;;;;;45.40;18.55;;;;;;;2.01;100.00;97498.63;4994095;28;20129;-61
2021/11/07 01:34:17;;;;;;;44.95;18.67;;;;;;;2.28;100.00;97492.56;4988339;28;20137;-61
2021/11/07 01:41:57;;;;;;;53.88;23.52;;;;;;;2.40;100.00;97504.84;4987681;28;20092;-59
2021/11/07 01:44:23;;;;;;;55.70;23.75;;;;;;;2.32;100.00;97497.38;4980700;28;20506;-60
2021/11/07 01:46:51;;;;;;;53.88;22.67;;;;;;;2.19;100.00;97488.91;4989127;28;20384;-59
2021/11/07 01:49:21;;;;;;;54.17;24.08;;;;;;;2.19;100.00;97497.00;4997945;28;20038;-59
2021/11/07 01:51:50;;;;;;;63.83;25.58;;;;;;;2.24;100.00;97493.44;4994174;28;20049;-58
2021/11/07 01:54:26;;;;;;;56.50;24.55;;;;;;;2.14;100.00;97493.59;4987922;28;20092;-61
2021/11/07 01:56:51;;;;;;;63.15;26.45;;;;;;;2.09;100.00;97487.16;4995821;28;20042;-62
2021/11/07 01:59:18;;;;;;;64.97;25.95;;;;;;;2.22;100.00;97485.63;4996505;28;20434;-58
2021/11/07 02:01:44;;;;;;;59.38;25.60;;;;;;;2.10;100.00;97480.66;4989124;28;20049;-60
2021/11/07 02:04:10;;;;;;;61.22;25.98;;;;;;;2.05;100.00;97491.56;4977322;28;20495;-62
2021/11/07 02:06:36;;;;;;;65.65;27.27;;;;;;;2.07;100.00;97493.94;4988465;28;20057;-60
2021/11/07 02:09:02;;;;;;;60.92;25.80;;;;;;;2.10;100.00;97496.88;4991008;28;20038;-59
2021/11/07 02:11:28;;;;;;;63.45;25.80;;;;;;;2.19;100.00;97493.53;5002455;28;20049;-60
2021/11/07 02:13:54;;;;;;;58.85;25.10;;;;;;;2.46;100.00;97474.72;4996164;28;20046;-60
2021/11/07 02:16:21;;;;;;;53.60;25.23;;;;;;;2.54;100.00;97461.63;4990717;28;20423;-58
2021/11/07 02:18:47;;;;;;;51.72;24.35;;;;;;;2.58;100.00;97460.75;4984028;28;20146;-61
2021/11/07 02:21:12;;;;;;;49.85;22.83;;;;;;;2.44;100.00;97452.56;4978709;28;20129;-60
2021/11/07 02:23:38;;;;;;;56.67;23.05;;;;;;;2.43;100.00;97463.69;4981441;28;20088;-59
2021/11/07 02:26:05;;;;;;;55.38;23.85;;;;;;;2.63;100.00;97466.06;4982996;28;20045;-63
2021/11/07 02:28:33;;;;;;;49.55;22.77;;;;;;;2.87;100.00;97463.22;4999416;28;20046;-59
2021/11/07 02:31:00;;;;;;;46.38;21.65;;;;;;;3.03;100.00;97462.94;4989441;28;20397;-61
2021/11/07 02:33:26;;;;;;;42.67;20.15;;;;;;;3.11;100.00;97459.53;4988953;28;20390;-58
2021/11/07 02:35:52;;;;;;;44.58;20.98;;;;;;;3.12;100.00;97457.66;5001961;28;20446;-60
2021/11/07 02:38:18;;;;;;;45.30;20.17;;;;;;;3.22;100.00;97446.59;4995827;28;20111;-61
2021/11/07 02:40:44;;;;;;;42.90;21.02;;;;;;;3.24;100.00;97434.41;5002628;28;20054;-61
2021/11/07 02:43:09;;;;;;;45.35;20.08;;;;;;;3.22;100.00;97428.47;4998619;28;20072;-61
2021/11/07 02:45:35;;;;;;;42.92;19.13;;;;;;;3.11;100.00;97424.34;4987353;28;20104;-59
2021/11/07 02:48:00;;;;;;;41.97;20.08;;;;;;;2.94;100.00;97419.53;4982580;28;20042;-59
2021/11/07 02:50:26;;;;;;;41.80;19.92;;;;;;;2.74;100.00;97417.19;4977240;28;20042;-60
2021/11/07 02:52:51;;;;;;;45.85;19.85;;;;;;;2.53;100.00;97408.66;4982044;28;20134;-63
2021/11/07 02:55:18;;;;;;;40.05;20.05;;;;;;;2.41;100.00;97407.22;4992959;28;20105;-61
2021/11/07 02:57:46;;;;;;;45.25;20.65;;;;;;;2.42;100.00;97408.00;4991453;28;20043;-59
2021/11/07 03:00:12;;;;;;;42.75;21.23;;;;;;;2.43;100.00;97406.91;4976698;28;20050;-61
2021/11/07 03:02:38;;;;;;;39.97;20.42;;;;;;;2.46;100.00;97399.00;4982007;28;20038;-57
2021/11/07 03:05:06;;;;;;;43.58;19.58;;;;;;;2.41;100.00;97395.59;4977122;28;20034;-60
2021/11/07 03:07:32;;;;;;;42.80;20.20;;;;;;;2.32;100.00;97405.47;4981942;28;20384;-59
2021/11/07 03:09:58;;;;;;;36.50;19.42;;;;;;;2.29;100.00;97425.78;4981516;28;20042;-61
2021/11/07 03:12:23;;;;;;;42.70;19.08;;;;;;;2.36;100.00;97425.41;4976078;28;20267;-60
2021/11/07 03:14:51;;;;;;;39.40;19.73;;;;;;;2.39;100.00;97435.63;4998182;28;20076;-60
2021/11/07 03:17:20;;;;;;;41.13;19.05;;;;;;;2.38;100.00;97432.13;4994180;28;20108;-60
2021/11/07 03:19:47;;;;;;;42.67;20.02;;;;;;;2.38;100.00;97434.03;4999076;28;20430;-59
2021/11/07 03:22:21;;;;;;;44.35;21.55;;;;;;;2.35;100.00;97421.09;4995849;28;20487;-60
2021/11/07 03:24:52;;;;;;;38.53;19.13;;;;;;;2.33;100.00;97420.59;5001339;28;20642;-58
2021/11/07 03:27:25;;;;;;;40.13;18.83;;;;;;;2.29;100.00;97417.69;4994540;28;20558;-59
2021/11/07 03:29:53;;;;;;;34.90;17.85;;;;;;;2.29;100.00;97401.47;4996317;28;20045;-59
2021/11/07 03:32:28;;;;;;;36.60;17.67;;;;;;;2.22;100.00;97388.31;4977029;28;20058;-60
2021/11/07 03:34:59;;;;;;;37.70;18.42;;;;;;;2.16;100.00;97397.63;4990584;28;20053;-60
2021/11/07 03:37:29;;;;;;;37.80;18.98;;;;;;;2.13;100.00;97395.50;4991330;28;20517;-59
2021/11/07 03:40:00;;;;;;;40.92;18.35;;;;;;;2.11;100.00;97376.09;4989105;28;20050;-59
2021/11/07 03:42:27;;;;;;;37.42;19.08;;;;;;;1.97;100.00;97367.91;4991263;28;20042;-57
2021/11/07 03:44:54;;;;;;;42.88;19.40;;;;;;;1.72;100.00;97363.69;4995470;28;20049;-59
2021/11/07 03:47:20;;;;;;;44.60;20.00;;;;;;;1.56;100.00;97367.72;4988487;28;20459;-60
2021/11/07 03:49:46;;;;;;;41.88;20.20;;;;;;;1.47;100.00;97362.16;4993745;28;20045;-58
2021/11/07 03:52:13;;;;;;;39.67;20.15;;;;;;;1.48;100.00;97351.06;4986686;28;20048;-59
2021/11/07 03:54:40;;;;;;;39.92;19.08;;;;;;;1.51;100.00;97345.09;4990534;28;20064;-60
2021/11/07 03:57:07;;;;;;;38.08;18.13;;;;;;;1.51;100.00;97337.00;4983405;28;20037;-60
2021/11/07 03:59:33;;;;;;;35.60;18.17;;;;;;;1.56;100.00;97335.31;4987744;28;20499;-58
2021/11/07 04:01:59;;;;;;;42.85;20.20;;;;;;;1.49;100.00;97341.06;4989559;28;20042;-59
2021/11/07 04:04:24;;;;;;;43.83;19.65;;;;;;;1.32;100.00;97349.69;4978167;28;20084;-57
2021/11/07 04:06:50;;;;;;;44.28;20.48;;;;;;;1.19;100.00;97348.50;4990882;28;20054;-55
2021/11/07 04:09:16;;;;;;;45.40;20.73;;;;;;;1.00;100.00;97347.66;4988363;28;20034;-58
2021/11/07 04:11:43;;;;;;;46.30;20.83;;;;;;;0.80;100.00;97356.78;4994220;28;20041;-58
2021/11/07 04:14:10;;;;;;;40.72;19.30;;;;;;;0.86;100.00;97369.13;4983337;28;20065;-60
2021/11/07 04:16:37;;;;;;;45.63;20.25;;;;;;;0.79;100.00;97355.97;4984145;28;20627;-59
2021/11/07 04:19:03;;;;;;;42.50;20.27;;;;;;;0.69;100.00;97345.31;4977315;28;20040;-60
2021/11/07 04:21:29;;;;;;;44.75;20.50;;;;;;;0.54;100.00;97352.47;4982555;28;20092;-60
2021/11/07 04:23:54;;;;;;;43.05;20.63;;;;;;;0.61;100.00;97370.19;5001204;28;20046;-59
2021/11/07 04:26:21;;;;;;;45.55;21.35;;;;;;;0.72;100.00;97369.00;4992319;28;20129;-61
2021/11/07 04:28:48;;;;;;;42.72;20.77;;;;;;;1.00;100.00;97375.44;4992474;28;20049;-60
2021/11/07 04:31:13;;;;;;;41.03;20.52;;;;;;;1.27;100.00;97382.94;4981628;28;20576;-62
2021/11/07 04:33:39;;;;;;;41.67;20.25;;;;;;;1.35;100.00;97376.06;4981606;28;20152;-59
2021/11/07 04:36:05;;;;;;;40.72;20.13;;;;;;;1.45;100.00;97384.03;4984441;28;20038;-61
2021/11/07 04:38:31;;;;;;;39.40;19.15;;;;;;;1.46;100.00;97390.25;4998634;28;20200;-58
2021/11/07 04:40:57;;;;;;;40.33;19.60;;;;;;;1.50;100.00;97388.59;4988290;28;20042;-60
2021/11/07 04:43:23;;;;;;;40.85;18.98;;;;;;;1.46;100.00;97374.88;4976738;28;20054;-60
2021/11/07 04:45:49;;;;;;;37.03;19.00;;;;;;;1.37;100.00;97373.09;4991863;28;20057;-60
2021/11/07 04:48:14;;;;;;;39.28;18.95;;;;;;;1.31;100.00;97373.19;4983698;28;20034;-62
2021/11/07 04:50:40;;;;;;;41.00;20.08;;;;;;;1.26;100.00;97369.72;4979425;28;20046;-59
2021/11/07 04:53:08;;;;;;;57.22;25.80;;;;;;;1.25;100.00;97374.31;4982557;28;20049;-63
2021/11/07 04:55:35;;;;;;;59.55;28.02;;;;;;;1.33;100.00;97370.16;4995462;28;20056;-61
2021/11/07 04:58:02;;;;;;;44.40;21.45;;;;;;;1.38;100.00;97372.81;4999999;28;20092;-60
2021/11/07 05:00:28;;;;;;;44.03;21.23;;;;;;;1.43;100.00;97372.75;4996681;28;20113;-58
2021/11/07 05:02:54;;;;;;;42.30;21.13;;;;;;;1.48;100.00;97388.88;5000843;28;20456;-58
2021/11/07 05:05:20;;;;;;;44.03;20.92;;;;;;;1.52;100.00;97379.09;4985415;28;20042;-59
2021/11/07 05:07:45;;;;;;;45.40;22.58;;;;;;;1.61;100.00;97383.84;4992918;28;20038;-59
2021/11/07 05:10:12;;;;;;;49.50;21.88;;;;;;;1.61;100.00;97376.53;4980452;28;20056;-60
2021/11/07 05:12:38;;;;;;;48.45;23.10;;;;;;;1.92;100.00;97374.19;4986780;28;20125;-61
2021/11/07 05:15:06;;;;;;;43.42;20.65;;;;;;;2.16;100.00;97367.06;4986393;28;20042;-62
2021/11/07 05:17:32;;;;;;;43.70;20.95;;;;;;;2.14;100.00;97366.56;4977080;28;20093;-60
2021/11/07 05:19:58;;;;;;;41.13;20.55;;;;;;;2.13;100.00;97359.56;4980834;28;20051;-61
2021/11/07 05:22:24;;;;;;;38.67;20.65;;;;;;;2.18;100.00;97364.88;4987367;28;20045;-61
2021/11/07 05:24:50;;;;;;;38.80;20.23;;;;;;;2.15;100.00;97370.88;4996951;28;20045;-60
2021/11/07 05:27:16;;;;;;;38.42;20.23;;;;;;;2.35;100.00;97369.75;4987105;28;20062;-61
2021/11/07 05:29:41;;;;;;;38.28;19.33;;;;;;;2.32;100.00;97379.22;4997759;28;20538;-61
2021/11/07 05:32:07;;;;;;;41.80;20.02;;;;;;;2.32;100.00;97378.44;4991001;28;20038;-61
2021/11/07 05:34:33;;;;;;;39.67;20.55;;;;;;;2.38;100.00;97372.66;4998359;28;20057;-61
2021/11/07 05:36:59;;;;;;;35.47;18.60;;;;;;;2.40;100.00;97375.84;4991176;28;20052;-58
2021/11/07 05:39:25;;;;;;;38.25;19.73;;;;;;;2.39;100.00;97376.94;4990844;28;20494;-60
2021/11/07 05:41:51;;;;;;;38.60;19.60;;;;;;;2.58;100.00;97368.00;4998063;28;20053;-60
2021/11/07 05:44:16;;;;;;;37.03;19.73;;;;;;;2.60;100.00;97358.47;4991279;28;20043;-61
2021/11/07 05:46:43;;;;;;;38.17;20.33;;;;;;;2.54;100.00;97345.34;4993056;28;20511;-60
2021/11/07 05:49:09;;;;;;;43.10;20.25;;;;;;;2.53;100.00;97332.94;4988323;28;20038;-59
2021/11/07 05:51:36;;;;;;;45.13;20.35;;;;;;;2.39;100.00;97338.31;4995550;28;20081;-59
2021/11/07 05:54:03;;;;;;;42.55;21.20;;;;;;;2.56;100.00;97325.03;5002035;28;20038;-60
2021/11/07 05:56:29;;;;;;;41.85;20.02;;;;;;;2.50;100.00;97320.78;5001504;28;20157;-59
2021/11/07 05:58:54;;;;;;;48.05;21.80;;;;;;;2.28;100.00;97335.78;5000274;28;20464;-58
2021/11/07 06:01:20;;;;;;;45.00;22.80;;;;;;;2.20;100.00;97355.38;4980562;28;20096;-59
2021/11/07 06:03:46;;;;;;;46.35;21.45;;;;;;;2.41;100.00;97355.84;5000858;28;20510;-56
2021/11/07 06:06:12;;;;;;;48.17;22.35;;;;;;;2.56;100.00;97351.28;5003966;28;20070;-60
2021/11/07 06:08:38;;;;;;;39.38;20.35;;;;;;;2.71;100.00;97356.38;4992525;28;20068;-58
2021/11/07 06:11:03;;;;;;;40.95;21.08;;;;;;;2.67;100.00;97349.97;4987407;28;20038;-62
2021/11/07 06:13:29;;;;;;;44.53;21.30;;;;;;;2.57;100.00;97359.06;4995040;28;20125;-58
2021/11/07 06:15:54;;;;;;;49.33;23.10;;;;;;;2.41;100.00;97360.44;4991007;28;20041;-60
2021/11/07 06:18:20;;;;;;;48.92;22.25;;;;;;;2.37;100.00;97359.44;4986614;28;20034;-59
2021/11/07 06:20:45;;;;;;;46.97;21.40;;;;;;;2.38;100.00;97356.44;4992441;28;20129;-59
2021/11/07 06:23:11;;;;;;;43.95;21.27;;;;;;;2.39;100.00;97363.44;4985766;28;20514;-60
2021/11/07 06:25:38;;;;;;;49.63;21.98;;;;;;;2.37;100.00;97379.16;4985662;28;20402;-59
2021/11/07 06:28:07;;;;;;;46.92;22.67;;;;;;;2.41;100.00;97380.19;4988418;28;20518;-62
2021/11/07 06:30:33;;;;;;;46.15;21.90;;;;;;;2.42;100.00;97389.88;5008659;28;20049;-57
2021/11/07 06:32:59;;;;;;;45.90;21.13;;;;;;;2.58;100.00;97386.94;5021571;28;20149;-57
2021/11/07 06:35:25;;;;;;;47.28;22.75;;;;;;;2.64;100.00;97383.81;4996827;28;20495;-59
2021/11/07 06:37:51;;;;;;;46.95;21.52;;;;;;;2.64;100.00;97372.19;4999549;28;20056;-58
2021/11/07 06:40:16;;;;;;;44.50;21.17;;;;;;;2.75;100.00;97378.22;4991890;28;20128;-59
2021/11/07 06:42:43;;;;;;;43.70;21.52;;;;;;;2.68;100.00;97375.91;5002857;28;20099;-60
2021/11/07 06:45:11;;;;;;;41.75;20.85;;;;;;;2.64;100.00;97380.31;4995920;28;20092;-59
2021/11/07 06:47:37;;;;;;;45.60;20.52;;;;;;;2.42;100.00;97375.56;5001577;28;20092;-57
2021/11/07 06:50:04;;;;;;;43.20;21.13;;;;;;;2.39;100.00;97390.47;4999990;28;20079;-62
2021/11/07 06:52:30;;;;;;;43.35;20.30;;;;;;;2.26;100.00;97394.72;4997289;28;20050;-59
2021/11/07 06:54:55;;;;;;;38.85;19.42;;;;;;;2.15;100.00;97379.78;4994045;28;20097;-60
2021/11/07 06:57:21;;;;;;;41.83;20.90;;;;;;;2.15;100.00;97385.19;4996702;28;20582;-60
2021/11/07 06:59:47;;;;;;;43.53;21.00;;;;;;;1.94;100.00;97384.69;5001678;28;20095;-59
2021/11/07 07:02:14;;;;;;;42.25;20.00;;;;;;;1.98;100.00;97379.50;4985787;28;20042;-59
2021/11/07 07:04:39;;;;;;;44.63;21.63;;;;;;;2.26;100.00;97383.91;4988378;28;20046;-58
2021/11/07 07:07:05;;;;;;;45.85;21.42;;;;;;;2.67;100.00;97372.41;4977118;28;20100;-60
2021/11/07 07:09:39;;;;;;;37.15;19.70;;;;;;;2.93;100.00;97384.66;4981858;28;20522;-62
2021/11/07 07:12:14;;;;;;;37.17;19.23;;;;;;;3.06;100.00;97383.84;4975430;28;20146;-62
2021/11/07 07:14:56;;;;;;;37.40;18.23;;;;;;;3.09;100.00;97393.28;4981812;28;20084;-57
2021/11/07 07:27:51;;;;;;;35.70;17.70;;;;;;;3.48;100.00;97381.13;4982804;28;20042;-68
2021/11/07 07:35:45;;;;;;;36.85;18.52;;;;;;;3.37;100.00;97348.84;5000730;28;20674;-60
2021/11/07 07:38:10;;;;;;;34.78;18.45;;;;;;;3.07;100.00;97344.88;4995898;28;20043;-61
2021/11/07 07:40:36;;;;;;;38.83;18.70;;;;;;;3.42;100.00;97342.50;5002476;28;20136;-61
2021/11/07 07:43:02;;;;;;;43.05;21.88;;;;;;;3.41;100.00;97333.56;5001455;28;20041;-62
2021/11/07 07:45:29;;;;;;;37.00;18.77;;;;;;;3.51;100.00;97335.28;4998405;28;20056;-61
2021/11/07 07:47:55;;;;;;;39.42;19.90;;;;;;;3.44;100.00;97327.56;4992876;28;20049;-58
2021/11/07 07:50:22;;;;;;;36.08;17.42;;;;;;;3.76;100.00;97324.94;4979274;28;20034;-61
2021/11/07 07:52:48;;;;;;;36.75;18.52;;;;;;;4.17;100.00;97329.41;4981003;28;20439;-60
2021/11/07 07:55:13;;;;;;;39.53;18.45;;;;;;;4.27;100.00;97328.31;4976154;28;20119;-61
2021/11/07 07:57:40;;;;;;;36.45;17.77;;;;;;;4.81;96.53;97350.81;4990016;28;20050;-62
2021/11/07 08:00:08;;;;;;;33.03;17.75;;;;;;;4.53;99.08;97355.63;4982763;28;20038;-60
2021/11/07 08:02:34;;;;;;;31.58;16.17;;;;;;;4.59;99.31;97373.34;4991986;28;20077;-60
2021/11/07 08:04:59;;;;;;;31.15;16.05;;;;;;;5.00;96.92;97388.56;5000679;28;20454;-60
2021/11/07 08:07:26;;;;;;;28.77;14.70;;;;;;;6.07;90.36;97381.16;4995193;28;20127;-59
2021/11/07 08:09:53;;;;;;;27.77;14.60;;;;;;;7.19;82.45;97362.91;5001317;28;20076;-60
2021/11/07 08:12:19;;;;;;;25.92;14.60;;;;;;;7.44;78.28;97361.19;4987207;28;20049;-58
2021/11/07 08:14:44;;;;;;;30.08;16.00;;;;;;;7.14;79.43;97356.84;4992369;28;20054;-60
2021/11/07 08:17:09;;;;;;;31.23;13.70;;;;;;;7.31;75.80;97342.34;4995459;28;20046;-59
2021/11/07 08:19:35;;;;;;;22.08;12.00;;;;;;;7.60;71.91;97327.91;4998556;28;20065;-60
2021/11/07 08:22:01;;;;;;;20.73;11.25;;;;;;;7.25;71.85;97318.00;5000047;28;20042;-59
2021/11/07 08:24:27;;;;;;;21.13;11.63;;;;;;;6.97;73.94;97303.25;4999560;28;20054;-59
2021/11/07 08:26:53;;;;;;;19.73;10.65;;;;;;;6.61;76.62;97302.63;4974633;28;20491;-59
2021/11/07 08:29:19;;;;;;;19.95;11.27;;;;;;;7.18;75.19;97295.91;4983186;28;20030;-60
2021/11/07 08:31:48;;;;;;;18.85;10.68;;;;;;;7.65;73.17;97287.59;4996201;28;20053;-58
2021/11/07 08:34:14;;;;;;;18.25;8.98;;;;;;;7.51;71.81;97288.97;4987228;28;20038;-61
2021/11/07 08:39:29;;;;;;;17.02;9.50;;;;;;;7.51;72.32;97308.88;4984784;28;20484;-60
2021/11/07 08:42:01;;;;;;;14.18;8.85;;;;;;;7.78;71.51;97301.31;4995425;28;20041;-61
2021/11/07 09:01:05;;;;;;;13.80;8.88;;;;;;;8.18;67.49;97251.66;4993336;28;20060;-58
2021/11/07 09:03:43;;;;;;;14.88;9.02;;;;;;;8.41;66.66;97255.56;4992110;28;20046;-60
2021/11/07 09:08:49;;;;;;;16.33;10.15;;;;;;;8.08;67.47;97252.88;4988588;28;20045;-61
2021/11/07 09:11:17;;;;;;;16.40;9.88;;;;;;;7.96;67.33;97272.75;4987329;28;20092;-61
2021/11/07 09:13:42;;;;;;;16.45;9.93;;;;;;;8.55;66.66;97270.84;4995067;28;20149;-61
2021/11/07 09:16:10;;;;;;;15.18;9.23;;;;;;;8.20;66.99;97268.50;4992158;28;20128;-61
2021/11/07 09:18:36;;;;;;;15.15;9.40;;;;;;;7.61;69.21;97259.38;4998054;28;20050;-59
2021/11/07 09:21:21;;;;;;;13.60;8.73;;;;;;;7.52;70.03;97261.38;5002791;28;20096;-62
2021/11/07 09:23:53;;;;;;;16.80;9.65;;;;;;;7.88;70.75;97251.78;5018559;28;20133;-56
2021/11/07 09:26:36;;;;;;;15.00;9.30;;;;;;;8.15;68.99;97250.38;5004794;28;20499;-60
2021/11/07 09:29:11;;;;;;;18.80;10.60;;;;;;;8.48;67.38;97241.41;4992122;28;20042;-61
2021/11/07 09:34:16;;;;;;;17.73;10.02;;;;;;;7.90;69.96;97238.59;4986917;28;20038;-61
2021/11/07 09:36:50;;;;;;;15.63;9.20;;;;;;;7.87;70.27;97235.75;4996573;28;20796;-59
2021/11/07 09:39:30;;;;;;;15.35;9.20;;;;;;;7.60;71.05;97224.31;4988037;28;20042;-60
2021/11/07 09:44:42;;;;;;;19.02;10.20;;;;;;;8.29;68.21;97214.63;4995222;28;20396;-61
2021/11/07 09:47:09;;;;;;;16.90;9.77;;;;;;;8.23;68.70;97222.22;4992225;28;20445;-56
2021/11/07 09:49:45;;;;;;;16.48;9.63;;;;;;;7.44;70.52;97215.94;4998974;28;20046;-62
2021/11/07 09:52:15;;;;;;;13.82;8.57;;;;;;;7.16;71.71;97212.94;5012572;28;20046;-58
2021/11/07 09:54:44;;;;;;;16.02;9.30;;;;;;;7.07;73.00;97210.28;4996757;28;20046;-60
2021/11/07 09:57:11;;;;;;;14.13;8.48;;;;;;;7.00;73.01;97207.28;4991392;28;20132;-59
2021/11/07 09:59:36;;;;;;;13.63;8.88;;;;;;;7.25;71.10;97213.66;4997748;28;20050;-58
2021/11/07 10:02:03;;;;;;;13.70;7.90;;;;;;;7.35;70.55;97213.28;4996004;28;20100;-60
2021/11/07 10:04:32;;;;;;;14.55;9.30;;;;;;;7.46;70.16;97205.50;4997052;28;20395;-61
2021/11/07 10:07:17;;;;;;;13.90;8.17;;;;;;;8.29;67.51;97208.38;4996273;28;20403;-61
2021/11/07 10:09:44;;;;;;;15.95;8.90;;;;;;;9.11;63.53;97215.66;4994822;28;20051;-60
2021/11/07 10:12:19;;;;;;;14.52;8.73;;;;;;;8.61;65.97;97221.16;4989155;28;20041;-62
2021/11/07 10:14:52;;;;;;;17.20;9.38;;;;;;;8.32;64.96;97240.41;4994362;28;20044;-60
2021/11/07 10:17:24;;;;;;;14.50;8.50;;;;;;;8.09;66.98;97234.59;4987104;28;20137;-61
2021/11/07 10:20:05;;;;;;;14.07;9.23;;;;;;;8.15;68.21;97225.84;4995241;28;20575;-57
2021/11/07 10:22:33;;;;;;;17.70;9.43;;;;;;;8.40;67.06;97207.56;4990408;28;20057;-61
2021/11/07 10:24:59;;;;;;;14.85;9.13;;;;;;;9.02;65.80;97196.69;4994666;28;20092;-61
2021/11/07 10:27:24;;;;;;;13.55;8.85;;;;;;;9.14;64.43;97187.63;4986518;28;20050;-61
2021/11/07 10:30:09;;;;;;;15.32;9.43;;;;;;;9.78;62.35;97169.53;4993359;28;20495;-61
2021/11/07 10:32:43;;;;;;;16.42;8.93;;;;;;;10.79;58.89;97161.88;4991110;28;20038;-60
2021/11/07 10:38:16;;;;;;;14.35;8.95;;;;;;;9.58;62.48;97165.88;4990218;28;20398;-60
2021/11/07 10:54:24;;;;;;;15.25;8.85;;;;;;;10.23;62.34;97157.41;4992525;28;20099;-62
2021/11/07 10:57:12;;;;;;;12.73;8.20;;;;;;;9.97;62.80;97155.16;4995826;28;20061;-60
2021/11/07 10:59:38;;;;;;;11.73;8.17;;;;;;;10.62;62.47;97154.03;4990331;28;20046;-60
2021/11/07 11:02:40;;;;;;;13.88;7.85;;;;;;;11.48;59.37;97162.19;4989763;28;20049;-62
2021/11/07 11:05:18;;;;;;;13.52;8.70;;;;;;;11.35;58.26;97149.78;4985462;28;20136;-61
2021/11/07 11:08:16;;;;;;;13.68;8.55;;;;;;;11.21;58.75;97142.03;4992266;28;20046;-61
2021/11/07 11:13:18;;;;;;;12.70;7.40;;;;;;;11.34;57.89;97123.50;4984681;28;20065;-60
2021/11/07 11:24:08;;;;;;;11.23;7.50;;;;;;;10.53;60.38;97124.09;4991324;28;20119;-59
2021/11/07 11:29:28;;;;;;;10.45;6.97;;;;;;;11.23;59.86;97127.97;4992831;28;20038;-57
2021/11/07 11:32:40;;;;;;;11.40;7.13;;;;;;;11.37;58.66;97119.25;4989486;28;20042;-55
2021/11/07 11:34:48;;;;;;;11.48;7.47;;;;;;;10.80;60.05;97113.34;4986124;28;20503;-60
2021/11/07 11:37:21;;;;;;;10.20;6.22;;;;;;;11.62;57.46;97109.53;4985741;28;20050;-60
2021/11/07 11:39:56;;;;;;;11.48;6.78;;;;;;;11.77;56.16;97096.09;4988972;28;20041;-60
2021/11/07 11:42:32;;;;;;;10.40;7.07;;;;;;;11.59;56.23;97080.09;4981799;28;22224;-61
2021/11/07 11:44:58;;;;;;;15.30;7.55;;;;;;;11.82;55.65;97071.09;4989100;28;20038;-61
2021/11/07 11:53:09;;;;;;;10.32;6.40;;;;;;;11.33;56.54;97060.81;4990713;28;20487;-56
2021/11/07 11:58:21;;;;;;;14.30;7.07;;;;;;;11.22;55.71;97041.41;4980823;28;20515;-61
2021/11/07 12:01:10;;;;;;;10.32;6.10;;;;;;;11.14;56.63;97045.94;4991742;28;20045;-65
2021/11/07 12:04:05;;;;;;;10.77;6.47;;;;;;;11.15;56.38;97047.53;4990693;28;20467;-59
2021/11/07 12:06:54;;;;;;;8.77;5.47;;;;;;;11.87;53.14;97048.84;5002430;28;20878;-60
2021/11/07 12:12:13;;;;;;;9.30;6.05;;;;;;;11.72;53.90;97050.56;4996465;28;20057;-59
2021/11/07 12:15:09;;;;;;;12.38;6.68;;;;;;;11.43;54.80;97035.50;4992452;28;20034;-56
2021/11/07 12:17:38;;;;;;;10.07;6.03;;;;;;;12.38;53.64;97025.72;4992645;28;20042;-59
2021/11/07 12:20:25;;;;;;;11.80;6.97;;;;;;;12.00;53.46;97025.53;4987280;28;20057;-61
2021/11/07 12:22:51;;;;;;;12.05;6.20;;;;;;;11.94;53.28;97027.03;4987175;28;20133;-59
2021/11/07 12:25:17;;;;;;;9.27;6.32;;;;;;;11.79;53.95;97022.41;4982434;28;20129;-60
2021/11/07 12:27:45;;;;;;;8.70;6.00;;;;;;;11.90;53.24;97017.91;4993878;28;20050;-58
2021/11/07 12:30:11;;;;;;;9.93;6.32;;;;;;;11.81;53.29;97003.63;4988913;28;20042;-58
2021/11/07 12:32:39;;;;;;;15.45;7.32;;;;;;;12.04;52.46;97009.91;4992105;28;20038;-59
2021/11/07 12:35:26;;;;;;;11.45;6.22;;;;;;;11.44;53.94;97013.22;4995280;28;20061;-61
2021/11/07 12:40:41;;;;;;;;;;;;;;;12.33;52.18;96993.06;4983506;28;20065;-58
2021/11/07 12:43:13;;;;;;;10.13;5.72;;;;;;;11.57;53.37;97002.84;4983393;28;19918;-58
2021/11/07 12:45:42;;;;;;;9.73;5.60;;;;;;;11.17;53.36;97006.84;4988083;28;20042;-57
2021/11/07 12:48:10;;;;;;;10.90;5.55;;;;;;;10.54;54.42;97012.63;4984058;28;20049;-59
2021/11/07 12:50:55;;;;;;;11.35;6.28;;;;;;;10.07;55.34;97008.81;4991823;28;20042;-58
2021/11/07 12:53:26;;;;;;;7.53;4.97;;;;;;;10.05;56.62;97003.69;4989614;28;20042;-60
2021/11/07 12:55:51;;;;;;;9.52;5.63;;;;;;;10.33;55.84;97000.84;4998615;28;20046;-59
2021/11/07 12:58:18;;;;;;;9.57;5.20;;;;;;;10.50;56.12;97015.28;5000261;28;20050;-59
2021/11/07 13:00:44;;;;;;;10.55;5.47;;;;;;;11.01;53.36;97014.38;5006585;28;20514;-57
2021/11/07 13:03:12;;;;;;;11.00;5.30;;;;;;;11.00;52.98;97012.75;5002715;28;20093;-61
2021/11/07 13:05:39;;;;;;;8.30;4.75;;;;;;;11.35;51.77;97015.41;5001228;28;20037;-59
2021/11/07 13:08:12;;;;;;;6.80;5.25;;;;;;;11.46;51.44;97012.84;4995873;28;20046;-62
2021/11/07 13:18:52;;;;;;;6.97;3.78;;;;;;;11.50;50.16;96997.25;5012311;28;20479;-58
2021/11/07 13:29:29;;;;;;;8.00;5.25;;;;;;;10.87;52.57;96980.03;4990420;28;20685;-59
2021/11/07 13:34:32;;;;;;;8.65;5.20;;;;;;;10.78;54.34;96992.38;4991121;28;20135;-62
2021/11/07 13:37:00;;;;;;;7.57;4.68;;;;;;;11.00;52.18;96980.69;4992028;28;20458;-61
2021/11/07 13:39:34;;;;;;;8.15;4.38;;;;;;;10.50;52.34;96988.69;4994840;28;20042;-60
2021/11/07 13:42:16;;;;;;;7.95;5.30;;;;;;;10.12;55.52;96981.97;4999514;28;20034;-58
2021/11/07 13:44:46;;;;;;;10.52;7.32;;;;;;;9.84;64.01;96965.69;5000699;28;20048;-59
2021/11/07 13:47:12;;;;;;;13.60;8.70;;;;;;;9.88;66.53;96965.75;4990208;28;20041;-60
2021/11/07 13:49:53;;;;;;;13.80;8.02;;;;;;;9.69;67.95;96959.09;5002896;28;20407;-60